Time;durP1;ratioP1;P1;durP2;ratioP2;P2;SDS_P1;SDS_P2;PMS_P1;PMS_P2;Temp;Humidity;BMP_temperature;BMP_pressure;BME280_temperature;BME280_humidity;BME280_pressure;Samples;Min_cycle;Max_cycle;Signal;HPM_P1;HPM_P2
2022/12/07 00:01:16;;;;;;;7.47;3.97;;;;;;;;;;4749062;30;20503;-79
2022/12/07 00:03:44;;;;;;;7.30;4.07;;;;;;;;;;4761119;30;20443;-80
2022/12/07 00:06:12;;;;;;;7.53;4.35;;;;;;;;;;4761625;30;20509;-78
2022/12/07 00:08:37;;;;;;;6.47;3.95;;;;;;;;;;4768416;30;20106;-79
2022/12/07 00:11:12;;;;;;;9.00;4.60;;;;;;;;;;4769323;30;20745;-79
2022/12/07 00:13:38;;;;;;;7.47;4.00;;;;;;;;;;4767668;30;20405;-79
2022/12/07 00:16:05;;;;;;;6.53;3.90;;;;;;;;;;4769915;30;20106;-79
2022/12/07 00:18:30;;;;;;;6.55;3.95;;;;;;;;;;4755451;30;20409;-80
2022/12/07 00:21:09;;;;;;;7.15;4.10;;;;;;;;;;4747543;30;20028;-78
2022/12/07 00:23:34;;;;;;;6.57;4.13;;;;;;;;;;4752090;30;20482;-79
2022/12/07 00:26:11;;;;;;;6.32;4.07;;;;;;;;;;4759637;30;20032;-79
2022/12/07 00:28:37;;;;;;;6.40;3.97;;;;;;;;;;4744000;30;20532;-79
2022/12/07 00:31:09;;;;;;;9.50;4.57;;;;;;;;;;4748002;30;20063;-79
2022/12/07 00:33:35;;;;;;;7.03;4.68;;;;;;;;;;4748913;30;20031;-79
2022/12/07 00:36:01;;;;;;;7.63;4.18;;;;;;;;;;4752182;30;20100;-79
2022/12/07 00:38:29;;;;;;;7.43;4.47;;;;;;;;;;4765412;30;20047;-79
2022/12/07 00:41:04;;;;;;;7.30;4.57;;;;;;;;;;4752980;30;21139;-79
2022/12/07 00:43:30;;;;;;;7.40;3.67;;;;;;;;;;4752095;30;20094;-79
2022/12/07 00:45:56;;;;;;;6.13;4.00;;;;;;;;;;4744076;30;20051;-78
2022/12/07 00:48:22;;;;;;;5.78;3.80;;;;;;;;;;4765357;30;20024;-78
2022/12/07 00:50:48;;;;;;;7.43;4.20;;;;;;;;;;4752824;30;20040;-77
2022/12/07 00:53:14;;;;;;;7.22;4.22;;;;;;;;;;4763920;30;20031;-79
2022/12/07 00:55:39;;;;;;;8.25;4.32;;;;;;;;;;4756940;30;20105;-80
2022/12/07 00:58:05;;;;;;;6.68;4.10;;;;;;;;;;4746262;30;20087;-79
2022/12/07 01:00:31;;;;;;;7.07;4.60;;;;;;;;;;4741116;30;20379;-79
2022/12/07 01:02:56;;;;;;;7.22;4.28;;;;;;;;;;4764278;30;20108;-79
2022/12/07 01:05:22;;;;;;;7.65;4.10;;;;;;;;;;4742882;30;20040;-78
2022/12/07 01:07:47;;;;;;;7.03;4.47;;;;;;;;;;4749870;30;20038;-79
2022/12/07 01:10:13;;;;;;;6.57;3.60;;;;;;;;;;4762312;30;20043;-79
2022/12/07 01:12:39;;;;;;;6.85;4.38;;;;;;;;;;4744987;30;20090;-79
2022/12/07 01:15:05;;;;;;;7.45;4.55;;;;;;;;;;4765870;30;20491;-79
2022/12/07 01:17:30;;;;;;;6.78;4.22;;;;;;;;;;4749454;30;20043;-79
2022/12/07 01:19:55;;;;;;;7.82;4.60;;;;;;;;;;4747113;30;20040;-79
2022/12/07 01:22:21;;;;;;;5.93;3.78;;;;;;;;;;4757127;30;20032;-79
2022/12/07 01:24:47;;;;;;;6.78;4.15;;;;;;;;;;4757365;30;20663;-79
2022/12/07 01:27:13;;;;;;;6.95;4.00;;;;;;;;;;4767973;30;20383;-79
2022/12/07 01:29:39;;;;;;;7.05;4.30;;;;;;;;;;4763476;30;20290;-78
2022/12/07 01:32:04;;;;;;;7.75;4.30;;;;;;;;;;4747817;30;20040;-79
2022/12/07 01:34:29;;;;;;;5.57;3.58;;;;;;;;;;4754997;30;20046;-79
2022/12/07 01:36:55;;;;;;;7.97;3.88;;;;;;;;;;4759595;30;20039;-79
2022/12/07 01:39:20;;;;;;;6.57;4.22;;;;;;;;;;4763556;30;20127;-79
2022/12/07 01:41:45;;;;;;;7.95;3.83;;;;;;;;;;4746579;30;20032;-79
2022/12/07 01:44:19;;;;;;;6.63;4.38;;;;;;;;;;4745095;30;20036;-79
2022/12/07 01:46:53;;;;;;;6.57;4.00;;;;;;;;;;4759641;30;20028;-78
2022/12/07 01:49:35;;;;;;;8.15;3.92;;;;;;;;;;4761449;30;20043;-79
2022/12/07 01:52:14;;;;;;;8.23;4.50;;;;;;;;;;4744035;30;20040;-78
2022/12/07 01:54:41;;;;;;;6.93;3.72;;;;;;;;;;4756246;30;20516;-78
2022/12/07 01:57:08;;;;;;;6.40;3.72;;;;;;;;;;4745835;30;20063;-79
2022/12/07 01:59:34;;;;;;;6.22;3.53;;;;;;;;;;4758483;30;20561;-78
2022/12/07 02:02:04;;;;;;;6.47;3.97;;;;;;;;;;4756328;30;20071;-79
2022/12/07 02:04:30;;;;;;;5.82;3.78;;;;;;;;;;4756570;30;20036;-77
2022/12/07 02:06:57;;;;;;;6.05;3.72;;;;;;;;;;4767829;30;20104;-79
2022/12/07 02:09:23;;;;;;;5.88;3.67;;;;;;;;;;4765764;30;20401;-79
2022/12/07 02:11:49;;;;;;;6.15;3.58;;;;;;;;;;4744194;30;20044;-79
2022/12/07 02:14:14;;;;;;;6.40;3.60;;;;;;;;;;4752297;30;20050;-79
2022/12/07 02:16:52;;;;;;;5.95;3.45;;;;;;;;;;4762791;30;20047;-79
2022/12/07 02:19:33;;;;;;;6.47;3.50;;;;;;;;;;4753416;30;20039;-79
2022/12/07 02:22:04;;;;;;;5.85;3.50;;;;;;;;;;4765666;30;20043;-79
2022/12/07 02:24:56;;;;;;;6.40;2.92;;;;;;;;;;4748432;30;20059;-79
2022/12/07 02:27:39;;;;;;;6.53;3.30;;;;;;;;;;4765452;30;20082;-79
2022/12/07 02:30:12;;;;;;;;;;;;;;;;;;4758813;30;20062;-79
2022/12/07 02:32:49;;;;;;;5.28;2.65;;;;;;;;;;4762308;30;20009;-79
2022/12/07 02:36:04;;;;;;;4.13;2.38;;;;;;;;;;4743779;30;20032;-79
2022/12/07 02:38:39;;;;;;;4.38;2.35;;;;;;;;;;4745052;30;20044;-79
2022/12/07 02:41:10;;;;;;;4.65;2.38;;;;;;;;;;4761785;30;20390;-79
2022/12/07 02:43:43;;;;;;;3.97;2.28;;;;;;;;;;4750117;30;20043;-80
2022/12/07 02:46:14;;;;;;;5.05;2.35;;;;;;;;;;4744741;30;20036;-79
2022/12/07 02:48:42;;;;;;;4.38;2.30;;;;;;;;;;4759115;30;20397;-79
2022/12/07 02:51:07;;;;;;;4.63;2.40;;;;;;;;;;4762775;30;20043;-79
2022/12/07 02:53:37;;;;;;;6.65;2.20;;;;;;;;;;4760257;30;20036;-78
2022/12/07 02:56:27;;;;;;;5.72;2.40;;;;;;;;;;4763272;30;20401;-79
2022/12/07 02:59:12;;;;;;;4.65;2.50;;;;;;;;;;4750624;30;20127;-78
2022/12/07 03:01:55;;;;;;;4.75;2.45;;;;;;;;;;4761212;30;20043;-79
2022/12/07 03:04:37;;;;;;;4.27;1.97;;;;;;;;;;4749923;30;20028;-79
2022/12/07 03:07:11;;;;;;;3.63;2.00;;;;;;;;;;4766104;30;20063;-77
2022/12/07 03:09:56;;;;;;;4.50;2.20;;;;;;;;;;4756958;30;20089;-79
2022/12/07 03:12:29;;;;;;;3.92;2.05;;;;;;;;;;4768330;30;20042;-79
2022/12/07 03:15:06;;;;;;;4.10;1.90;;;;;;;;;;4765107;30;20551;-79
2022/12/07 03:17:34;;;;;;;3.60;1.90;;;;;;;;;;4769937;30;20349;-79
2022/12/07 03:20:03;;;;;;;3.75;1.90;;;;;;;;;;4764445;30;20039;-79
2022/12/07 03:22:32;;;;;;;5.22;1.80;;;;;;;;;;4764941;30;20513;-80
2022/12/07 03:25:00;;;;;;;4.50;2.03;;;;;;;;;;4764235;30;20115;-80
2022/12/07 03:27:30;;;;;;;5.82;2.28;;;;;;;;;;4746454;30;20028;-79
2022/12/07 03:30:02;;;;;;;4.03;2.00;;;;;;;;;;4762395;30;20039;-79
2022/12/07 03:32:50;;;;;;;4.80;2.08;;;;;;;;;;4762913;30;20110;-79
2022/12/07 03:35:26;;;;;;;3.78;1.65;;;;;;;;;;4756852;30;20493;-79
2022/12/07 03:37:57;;;;;;;5.85;2.00;;;;;;;;;;4750451;30;20035;-80
2022/12/07 03:40:33;;;;;;;6.05;1.88;;;;;;;;;;4758594;30;20505;-79
2022/12/07 03:43:01;;;;;;;3.55;1.98;;;;;;;;;;4759951;30;20042;-78
2022/12/07 03:45:38;;;;;;;4.38;2.15;;;;;;;;;;4763872;30;20039;-79
2022/12/07 03:48:33;;;;;;;3.53;1.90;;;;;;;;;;4743560;30;20122;-79
2022/12/07 03:51:11;;;;;;;3.97;1.95;;;;;;;;;;4731576;30;20588;-79
2022/12/07 03:53:43;;;;;;;4.03;1.80;;;;;;;;;;4760812;30;20058;-79
2022/12/07 03:56:10;;;;;;;2.85;1.55;;;;;;;;;;4763512;30;20046;-79
2022/12/07 03:58:36;;;;;;;3.55;1.80;;;;;;;;;;4748779;30;20051;-80
2022/12/07 04:01:02;;;;;;;3.13;1.83;;;;;;;;;;4760363;30;20122;-79
2022/12/07 04:03:28;;;;;;;4.93;2.50;;;;;;;;;;4759958;30;20119;-80
2022/12/07 04:05:53;;;;;;;5.57;1.98;;;;;;;;;;4759464;30;20397;-80
2022/12/07 04:08:19;;;;;;;4.00;2.10;;;;;;;;;;4750582;30;20465;-79
2022/12/07 04:10:44;;;;;;;3.50;1.80;;;;;;;;;;4758558;30;20727;-80
2022/12/07 04:13:10;;;;;;;3.58;1.90;;;;;;;;;;4767542;30;20118;-79
2022/12/07 04:15:35;;;;;;;4.35;2.03;;;;;;;;;;4746158;30;20083;-79
2022/12/07 04:18:00;;;;;;;3.83;2.00;;;;;;;;;;4743948;30;20795;-80
2022/12/07 04:20:26;;;;;;;3.22;1.80;;;;;;;;;;4747325;30;20042;-79
2022/12/07 04:22:51;;;;;;;4.70;1.90;;;;;;;;;;4764864;30;20513;-79
2022/12/07 04:25:16;;;;;;;3.83;1.60;;;;;;;;;;4763169;30;20504;-79
2022/12/07 04:27:42;;;;;;;4.43;1.50;;;;;;;;;;4750671;30;20024;-80
2022/12/07 04:30:08;;;;;;;3.80;1.80;;;;;;;;;;4769573;30;20613;-79
2022/12/07 04:32:33;;;;;;;3.00;1.52;;;;;;;;;;4764222;30;20041;-80
2022/12/07 04:34:59;;;;;;;3.40;1.35;;;;;;;;;;4749808;30;20130;-79
2022/12/07 04:37:24;;;;;;;2.63;1.52;;;;;;;;;;4756375;30;20035;-79
2022/12/07 04:39:50;;;;;;;2.72;1.48;;;;;;;;;;4766352;30;20035;-80
2022/12/07 04:42:15;;;;;;;2.30;1.35;;;;;;;;;;4768121;30;20036;-79
2022/12/07 04:44:41;;;;;;;3.92;1.50;;;;;;;;;;4746234;30;20122;-79
2022/12/07 04:47:06;;;;;;;3.97;1.42;;;;;;;;;;4770536;30;20122;-79
2022/12/07 04:49:32;;;;;;;2.72;1.40;;;;;;;;;;4763536;30;20440;-79
2022/12/07 04:51:57;;;;;;;3.17;1.10;;;;;;;;;;4750821;30;20031;-79
2022/12/07 04:54:23;;;;;;;2.88;1.13;;;;;;;;;;4766910;30;20096;-79
2022/12/07 04:56:48;;;;;;;2.50;1.05;;;;;;;;;;4751168;30;20089;-80
2022/12/07 04:59:16;;;;;;;2.47;1.10;;;;;;;;;;4757618;30;21549;-78
2022/12/07 05:01:41;;;;;;;2.20;1.05;;;;;;;;;;4744051;30;20028;-79
2022/12/07 05:04:07;;;;;;;2.60;1.20;;;;;;;;;;4763853;30;20032;-80
2022/12/07 05:06:33;;;;;;;4.55;1.10;;;;;;;;;;4739126;30;20031;-79
2022/12/07 05:08:58;;;;;;;1.90;1.10;;;;;;;;;;4763435;30;20375;-80
2022/12/07 05:11:39;;;;;;;2.97;1.33;;;;;;;;;;4746830;30;21172;-80
2022/12/07 05:14:19;;;;;;;3.13;1.15;;;;;;;;;;4764839;30;20093;-80
2022/12/07 05:16:46;;;;;;;3.70;1.00;;;;;;;;;;4747569;30;20056;-79
2022/12/07 05:19:12;;;;;;;3.55;1.40;;;;;;;;;;4758010;30;20443;-81
2022/12/07 05:21:38;;;;;;;2.30;1.10;;;;;;;;;;4762874;30;20078;-80
2022/12/07 05:24:04;;;;;;;4.68;1.30;;;;;;;;;;4763955;30;20062;-80
2022/12/07 05:26:30;;;;;;;2.22;1.10;;;;;;;;;;4765460;30;20043;-78
2022/12/07 05:28:56;;;;;;;3.20;1.02;;;;;;;;;;4742047;30;20028;-79
2022/12/07 05:31:22;;;;;;;4.53;1.10;;;;;;;;;;4759842;30;20035;-79
2022/12/07 05:33:47;;;;;;;4.13;1.42;;;;;;;;;;4749203;30;20035;-80
2022/12/07 05:36:13;;;;;;;2.22;1.30;;;;;;;;;;4745583;30;20038;-79
2022/12/07 05:38:39;;;;;;;2.53;1.08;;;;;;;;;;4762887;30;20043;-79
2022/12/07 05:41:06;;;;;;;4.60;1.63;;;;;;;;;;4764774;30;20031;-79
2022/12/07 05:43:32;;;;;;;2.85;1.40;;;;;;;;;;4765147;30;20032;-80
2022/12/07 05:45:58;;;;;;;2.85;1.05;;;;;;;;;;4750407;30;20082;-80
2022/12/07 05:48:24;;;;;;;3.60;1.50;;;;;;;;;;4766749;30;20560;-79
2022/12/07 05:50:50;;;;;;;3.17;1.17;;;;;;;;;;4761847;30;20066;-80
2022/12/07 05:53:16;;;;;;;5.10;1.23;;;;;;;;;;4763069;30;20389;-80
2022/12/07 05:55:41;;;;;;;4.05;1.25;;;;;;;;;;4767788;30;20036;-80
2022/12/07 06:00:51;;;;;;;3.53;1.20;;;;;;;;;;4760228;30;20046;-80
2022/12/07 06:03:16;;;;;;;4.18;1.00;;;;;;;;;;4753238;30;20039;-80
2022/12/07 06:05:42;;;;;;;2.42;0.90;;;;;;;;;;4756567;30;20082;-80
2022/12/07 06:08:07;;;;;;;2.78;1.17;;;;;;;;;;4765357;30;20450;-80
2022/12/07 06:10:33;;;;;;;2.13;0.95;;;;;;;;;;4760325;30;20038;-79
2022/12/07 06:12:58;;;;;;;2.08;1.05;;;;;;;;;;4750176;30;20039;-80
2022/12/07 06:15:24;;;;;;;4.15;1.40;;;;;;;;;;4760927;30;20060;-80
2022/12/07 06:17:51;;;;;;;4.75;1.20;;;;;;;;;;4748212;30;20083;-80
2022/12/07 06:20:16;;;;;;;2.20;1.15;;;;;;;;;;4746597;30;20120;-80
2022/12/07 06:22:41;;;;;;;2.10;1.00;;;;;;;;;;4767871;30;20043;-80
2022/12/07 06:25:07;;;;;;;2.92;1.02;;;;;;;;;;4767218;30;20123;-80
2022/12/07 06:27:33;;;;;;;1.67;0.95;;;;;;;;;;4749705;30;20035;-80
2022/12/07 06:29:58;;;;;;;3.17;1.05;;;;;;;;;;4768226;30;20042;-80
2022/12/07 06:32:24;;;;;;;1.92;0.82;;;;;;;;;;4766110;30;20031;-78
2022/12/07 06:34:49;;;;;;;3.88;1.30;;;;;;;;;;4765403;30;20074;-80
2022/12/07 06:37:15;;;;;;;3.08;1.60;;;;;;;;;;4771024;30;20378;-80
2022/12/07 06:39:40;;;;;;;4.60;1.38;;;;;;;;;;4749102;30;20028;-79
2022/12/07 06:42:05;;;;;;;2.78;1.10;;;;;;;;;;4769589;30;20098;-79
2022/12/07 06:44:31;;;;;;;3.92;1.38;;;;;;;;;;4766767;30;20028;-79
2022/12/07 06:46:56;;;;;;;2.85;1.10;;;;;;;;;;4763598;30;20124;-80
2022/12/07 06:49:21;;;;;;;3.50;1.25;;;;;;;;;;4757469;30;20038;-80
2022/12/07 06:51:47;;;;;;;4.28;1.13;;;;;;;;;;4763962;30;20132;-80
2022/12/07 06:54:14;;;;;;;3.35;1.20;;;;;;;;;;4756268;30;20039;-80
2022/12/07 06:56:40;;;;;;;2.83;1.33;;;;;;;;;;4764871;30;20038;-80
2022/12/07 06:59:06;;;;;;;4.32;1.20;;;;;;;;;;4762722;30;20496;-80
2022/12/07 07:01:33;;;;;;;4.22;1.48;;;;;;;;;;4760649;30;20383;-80
2022/12/07 07:03:58;;;;;;;2.55;1.05;;;;;;;;;;4765892;30;20600;-80
2022/12/07 07:06:24;;;;;;;3.38;1.50;;;;;;;;;;4766850;30;20103;-81
2022/12/07 07:08:50;;;;;;;5.20;1.40;;;;;;;;;;4768049;30;20035;-81
2022/12/07 07:11:15;;;;;;;3.05;1.30;;;;;;;;;;4764418;30;20039;-80
2022/12/07 07:13:41;;;;;;;5.30;1.60;;;;;;;;;;4767145;30;20032;-80
2022/12/07 07:16:07;;;;;;;3.75;1.38;;;;;;;;;;4748853;30;20043;-79
2022/12/07 07:18:32;;;;;;;6.03;1.27;;;;;;;;;;4767522;30;20127;-80
2022/12/07 07:20:58;;;;;;;1.83;0.90;;;;;;;;;;4752325;30;20189;-80
2022/12/07 07:23:23;;;;;;;3.67;1.15;;;;;;;;;;4750524;30;20046;-80
2022/12/07 07:25:49;;;;;;;2.67;1.05;;;;;;;;;;4768662;30;20043;-81
2022/12/07 07:28:15;;;;;;;1.95;1.17;;;;;;;;;;4758313;30;20115;-81
2022/12/07 07:30:40;;;;;;;3.03;1.27;;;;;;;;;;4765927;30;20042;-81
2022/12/07 07:33:06;;;;;;;3.67;1.30;;;;;;;;;;4748578;30;20039;-83
2022/12/07 07:35:33;;;;;;;2.75;1.20;;;;;;;;;;4752683;30;20027;-80
2022/12/07 07:37:59;;;;;;;3.28;1.17;;;;;;;;;;4744438;30;20036;-81
2022/12/07 07:40:25;;;;;;;2.80;1.30;;;;;;;;;;4751913;30;20034;-81
2022/12/07 07:42:51;;;;;;;4.43;1.25;;;;;;;;;;4743277;30;20039;-80
2022/12/07 07:45:19;;;;;;;4.60;1.10;;;;;;;;;;4773866;30;20039;-79
2022/12/07 07:47:44;;;;;;;3.13;0.95;;;;;;;;;;4751731;30;20059;-81
2022/12/07 07:50:10;;;;;;;4.25;1.27;;;;;;;;;;4763030;30;20203;-81
2022/12/07 07:52:35;;;;;;;2.60;1.23;;;;;;;;;;4747136;30;20085;-82
2022/12/07 07:55:01;;;;;;;4.80;1.15;;;;;;;;;;4749831;30;20043;-80
2022/12/07 07:57:27;;;;;;;4.00;1.50;;;;;;;;;;4766546;30;20035;-82
2022/12/07 07:59:52;;;;;;;3.90;1.30;;;;;;;;;;4770535;30;20032;-80
2022/12/07 08:02:19;;;;;;;3.88;1.42;;;;;;;;;;4766537;30;20062;-81
2022/12/07 08:04:45;;;;;;;3.95;1.33;;;;;;;;;;4764616;30;20485;-79
2022/12/07 08:07:11;;;;;;;5.13;1.77;;;;;;;;;;4752352;30;20047;-81
2022/12/07 08:09:37;;;;;;;3.30;1.40;;;;;;;;;;4756922;30;20047;-81
2022/12/07 08:12:03;;;;;;;4.25;1.33;;;;;;;;;;4771370;30;20482;-81
2022/12/07 08:14:28;;;;;;;3.30;1.02;;;;;;;;;;4754273;30;20184;-81
2022/12/07 08:16:54;;;;;;;2.70;1.38;;;;;;;;;;4761032;30;20505;-81
2022/12/07 08:19:19;;;;;;;4.65;1.40;;;;;;;;;;4745166;30;20572;-80
2022/12/07 08:21:44;;;;;;;3.95;1.30;;;;;;;;;;4772617;30;20181;-81
2022/12/07 08:24:10;;;;;;;3.70;1.45;;;;;;;;;;4758431;30;20616;-81
2022/12/07 08:26:35;;;;;;;3.45;1.45;;;;;;;;;;4769857;30;20032;-81
2022/12/07 08:29:01;;;;;;;3.45;1.67;;;;;;;;;;4751028;30;20027;-79
2022/12/07 08:31:27;;;;;;;3.45;1.40;;;;;;;;;;4758827;30;20046;-82
2022/12/07 08:33:53;;;;;;;4.38;1.40;;;;;;;;;;4758352;30;20035;-81
2022/12/07 08:36:18;;;;;;;3.88;1.55;;;;;;;;;;4753052;30;20058;-81
2022/12/07 08:38:44;;;;;;;4.57;1.45;;;;;;;;;;4759259;30;20092;-81
2022/12/07 08:41:09;;;;;;;3.80;1.30;;;;;;;;;;4772113;30;20035;-81
2022/12/07 08:43:35;;;;;;;3.67;1.40;;;;;;;;;;4767354;30;20043;-82
2022/12/07 08:46:05;;;;;;;3.05;1.38;;;;;;;;;;4765183;30;20040;-81
2022/12/07 08:48:32;;;;;;;4.53;1.55;;;;;;;;;;4768427;30;20039;-81
2022/12/07 08:50:57;;;;;;;3.63;2.00;;;;;;;;;;4769859;30;20573;-81
2022/12/07 08:53:23;;;;;;;3.50;1.80;;;;;;;;;;4756922;30;20032;-81
2022/12/07 08:55:49;;;;;;;5.20;2.35;;;;;;;;;;4751542;30;20464;-81
2022/12/07 08:58:14;;;;;;;5.05;1.83;;;;;;;;;;4777011;30;20071;-81
2022/12/07 09:00:40;;;;;;;4.15;1.77;;;;;;;;;;4748946;30;20113;-81
2022/12/07 09:03:05;;;;;;;3.97;1.50;;;;;;;;;;4762872;30;20024;-78
2022/12/07 09:05:32;;;;;;;6.10;1.80;;;;;;;;;;4761852;30;20031;-81
2022/12/07 09:08:00;;;;;;;5.20;2.08;;;;;;;;;;4767997;30;20036;-81
2022/12/07 09:10:28;;;;;;;4.60;1.92;;;;;;;;;;4770507;30;21333;-81
2022/12/07 09:12:53;;;;;;;4.30;2.10;;;;;;;;;;4752560;30;20039;-80
2022/12/07 09:15:19;;;;;;;5.35;2.00;;;;;;;;;;4749977;30;20101;-81
2022/12/07 09:17:44;;;;;;;3.15;1.70;;;;;;;;;;4768549;30;20059;-80
2022/12/07 09:20:10;;;;;;;4.25;1.77;;;;;;;;;;4763482;30;20481;-81
2022/12/07 09:22:35;;;;;;;4.10;1.60;;;;;;;;;;4751269;30;20481;-81
2022/12/07 09:25:01;;;;;;;4.03;1.42;;;;;;;;;;4765518;30;20092;-80
2022/12/07 09:27:27;;;;;;;4.35;1.63;;;;;;;;;;4772716;30;20486;-81
2022/12/07 09:29:52;;;;;;;4.55;1.90;;;;;;;;;;4752760;30;20404;-80
2022/12/07 09:32:18;;;;;;;5.50;1.98;;;;;;;;;;4765289;30;20036;-81
2022/12/07 09:34:43;;;;;;;5.68;1.30;;;;;;;;;;4763369;30;20032;-81
2022/12/07 09:37:09;;;;;;;6.38;1.75;;;;;;;;;;4754725;30;20043;-80
2022/12/07 09:39:38;;;;;;;4.18;1.67;;;;;;;;;;4771178;30;20036;-81
2022/12/07 09:42:04;;;;;;;4.00;1.58;;;;;;;;;;4768014;30;20050;-80
2022/12/07 09:44:31;;;;;;;4.82;1.77;;;;;;;;;;4773520;30;20027;-80
2022/12/07 09:46:57;;;;;;;4.85;1.58;;;;;;;;;;4754114;30;20040;-80
2022/12/07 09:49:25;;;;;;;3.90;1.70;;;;;;;;;;4751711;30;20049;-80
2022/12/07 09:52:16;;;;;;;5.95;1.67;;;;;;;;;;4764321;30;20113;-80
2022/12/07 09:54:45;;;;;;;6.25;1.35;;;;;;;;;;4771225;30;20035;-79
2022/12/07 09:57:12;;;;;;;5.72;1.50;;;;;;;;;;4759129;30;20742;-80
2022/12/07 09:59:38;;;;;;;4.70;1.45;;;;;;;;;;4773060;30;20393;-80
2022/12/07 10:02:21;;;;;;;6.18;1.48;;;;;;;;;;4766592;30;20040;-81
2022/12/07 10:04:47;;;;;;;2.55;1.10;;;;;;;;;;4754174;30;20035;-80
2022/12/07 10:07:12;;;;;;;5.40;1.30;;;;;;;;;;4752202;30;20045;-80
2022/12/07 10:09:37;;;;;;;2.78;1.10;;;;;;;;;;4776478;30;20031;-80
2022/12/07 10:12:09;;;;;;;3.65;1.38;;;;;;;;;;4754402;30;20089;-80
2022/12/07 10:14:37;;;;;;;2.88;1.00;;;;;;;;;;4769637;30;20034;-80
2022/12/07 10:17:02;;;;;;;4.47;1.27;;;;;;;;;;4769508;30;20055;-80
2022/12/07 10:19:35;;;;;;;4.55;1.30;;;;;;;;;;4761888;30;20452;-81
2022/12/07 10:22:03;;;;;;;4.38;1.27;;;;;;;;;;4762814;30;20039;-79
2022/12/07 10:24:29;;;;;;;5.40;1.30;;;;;;;;;;4752372;30;20562;-79
2022/12/07 10:26:54;;;;;;;2.45;1.27;;;;;;;;;;4772097;30;20036;-79
2022/12/07 10:29:38;;;;;;;4.57;1.20;;;;;;;;;;4753355;30;20024;-79
2022/12/07 10:32:32;;;;;;;4.68;1.20;;;;;;;;;;4766976;30;20024;-79
2022/12/07 10:35:21;;;;;;;2.92;1.02;;;;;;;;;;4763702;30;20040;-80
2022/12/07 10:37:47;;;;;;;3.63;1.35;;;;;;;;;;4770262;30;20435;-79
2022/12/07 10:40:34;;;;;;;2.55;1.15;;;;;;;;;;4764141;30;20371;-79
2022/12/07 10:43:19;;;;;;;3.70;1.02;;;;;;;;;;4750825;30;20101;-80
2022/12/07 10:45:50;;;;;;;2.55;1.08;;;;;;;;;;4768386;30;20131;-78
2022/12/07 10:48:39;;;;;;;4.22;1.13;;;;;;;;;;4752904;30;20039;-79
2022/12/07 10:51:41;;;;;;;2.78;1.23;;;;;;;;;;4765211;30;20071;-79
2022/12/07 10:54:16;;;;;;;2.42;1.25;;;;;;;;;;4769762;30;20520;-79
2022/12/07 10:56:48;;;;;;;4.10;1.23;;;;;;;;;;4760004;30;20036;-79
2022/12/07 10:59:38;;;;;;;4.47;1.45;;;;;;;;;;4755131;30;20036;-79
2022/12/07 11:02:27;;;;;;;4.15;1.40;;;;;;;;;;4746597;30;20039;-79
2022/12/07 11:05:05;;;;;;;4.25;1.52;;;;;;;;;;4757321;30;20032;-79
2022/12/07 11:07:44;;;;;;;3.05;1.13;;;;;;;;;;4769175;30;20055;-79
2022/12/07 11:10:24;;;;;;;6.57;1.50;;;;;;;;;;4766257;30;20039;-80
2022/12/07 11:13:04;;;;;;;2.35;1.48;;;;;;;;;;4763626;30;20367;-79
2022/12/07 11:15:37;;;;;;;4.80;1.08;;;;;;;;;;4755832;30;20110;-78
2022/12/07 11:18:14;;;;;;;3.85;1.17;;;;;;;;;;4761272;30;20508;-79
2022/12/07 11:20:53;;;;;;;4.80;1.42;;;;;;;;;;4764104;30;20067;-80
2022/12/07 11:23:48;;;;;;;3.47;1.23;;;;;;;;;;4766337;30;20035;-80
2022/12/07 11:26:29;;;;;;;3.78;1.15;;;;;;;;;;4765450;30;20056;-78
2022/12/07 11:29:11;;;;;;;3.67;1.15;;;;;;;;;;4752198;30;20028;-80
2022/12/07 11:31:44;;;;;;;6.93;1.67;;;;;;;;;;4741371;30;20039;-80
2022/12/07 11:34:22;;;;;;;4.75;1.60;;;;;;;;;;4768942;30;20079;-80
2022/12/07 11:36:52;;;;;;;3.38;1.35;;;;;;;;;;4768797;30;20035;-80
2022/12/07 11:39:33;;;;;;;4.65;1.50;;;;;;;;;;4767713;30;20469;-80
2022/12/07 11:42:24;;;;;;;4.70;1.52;;;;;;;;;;4762963;30;20085;-80
2022/12/07 11:44:55;;;;;;;6.00;1.50;;;;;;;;;;4769110;30;20063;-80
2022/12/07 11:47:30;;;;;;;6.55;1.70;;;;;;;;;;4765396;30;20108;-80
2022/12/07 11:50:34;;;;;;;8.45;1.60;;;;;;;;;;4763608;30;20488;-80
2022/12/07 11:53:16;;;;;;;5.50;1.77;;;;;;;;;;4743247;30;20113;-80
2022/12/07 11:55:53;;;;;;;3.03;1.48;;;;;;;;;;4763801;30;20564;-80
2022/12/07 11:58:33;;;;;;;4.05;1.70;;;;;;;;;;4770438;30;20038;-80
2022/12/07 12:01:19;;;;;;;2.85;1.35;;;;;;;;;;4756409;30;20512;-80
2022/12/07 12:03:50;;;;;;;6.22;1.80;;;;;;;;;;4764585;30;20140;-79
2022/12/07 12:06:16;;;;;;;4.13;1.58;;;;;;;;;;4750233;30;20504;-80
2022/12/07 12:09:00;;;;;;;3.70;1.42;;;;;;;;;;4765675;30;20028;-79
2022/12/07 12:12:10;;;;;;;8.40;1.92;;;;;;;;;;4766322;30;20028;-80
2022/12/07 12:14:54;;;;;;;4.90;1.55;;;;;;;;;;4754422;30;20047;-79
2022/12/07 12:17:55;;;;;;;5.47;1.63;;;;;;;;;;4762843;30;20048;-80
2022/12/07 12:20:30;;;;;;;1.92;1.08;;;;;;;;;;4765723;30;20043;-79
2022/12/07 12:23:04;;;;;;;2.97;1.00;;;;;;;;;;4764178;30;20040;-80
2022/12/07 12:25:58;;;;;;;4.25;0.95;;;;;;;;;;4765850;30;20043;-80
2022/12/07 12:28:32;;;;;;;1.95;0.50;;;;;;;;;;4767109;30;20032;-78
2022/12/07 12:31:23;;;;;;;0.88;0.50;;;;;;;;;;4767835;30;20031;-80
2022/12/07 12:33:54;;;;;;;1.67;0.68;;;;;;;;;;4747001;30;20043;-80
2022/12/07 12:36:25;;;;;;;2.13;0.60;;;;;;;;;;4748509;30;20035;-80
2022/12/07 12:38:58;;;;;;;1.48;0.70;;;;;;;;;;4763064;30;20027;-77
2022/12/07 12:41:35;;;;;;;2.15;0.40;;;;;;;;;;4773780;30;20489;-78
2022/12/07 12:44:02;;;;;;;3.85;1.00;;;;;;;;;;4764623;30;20100;-80
2022/12/07 12:46:33;;;;;;;3.08;1.00;;;;;;;;;;4763761;30;20080;-80
2022/12/07 12:49:19;;;;;;;4.82;1.35;;;;;;;;;;4747358;30;20043;-80
2022/12/07 12:51:47;;;;;;;3.92;1.30;;;;;;;;;;4767034;30;20039;-79
2022/12/07 12:54:21;;;;;;;3.40;1.20;;;;;;;;;;4767373;30;20063;-79
2022/12/07 12:57:15;;;;;;;5.10;1.52;;;;;;;;;;4760435;30;20044;-80
2022/12/07 12:59:41;;;;;;;4.72;1.73;;;;;;;;;;4760211;30;20375;-80
2022/12/07 13:02:20;;;;;;;3.67;1.55;;;;;;;;;;4750042;30;20297;-80
2022/12/07 13:04:59;;;;;;;2.92;1.38;;;;;;;;;;4755156;30;20039;-80
2022/12/07 13:08:01;;;;;;;5.43;1.38;;;;;;;;;;4764158;30;20047;-78
2022/12/07 13:10:29;;;;;;;2.65;1.13;;;;;;;;;;4744152;30;20745;-80
2022/12/07 13:13:10;;;;;;;4.85;1.30;;;;;;;;;;4763238;30;20039;-79
2022/12/07 13:15:47;;;;;;;3.85;1.65;;;;;;;;;;4763003;30;20067;-80
2022/12/07 13:18:36;;;;;;;3.28;1.48;;;;;;;;;;4750827;30;20485;-80
2022/12/07 13:21:02;;;;;;;4.57;1.77;;;;;;;;;;4759779;30;20397;-80
2022/12/07 13:23:36;;;;;;;5.35;1.92;;;;;;;;;;4765583;30;20031;-80
2022/12/07 13:26:25;;;;;;;3.85;1.77;;;;;;;;;;4765835;30;20024;-80
2022/12/07 13:29:05;;;;;;;4.80;1.70;;;;;;;;;;4766653;30;20042;-77
2022/12/07 13:31:36;;;;;;;4.53;1.90;;;;;;;;;;4758140;30;20477;-79
2022/12/07 13:34:04;;;;;;;5.32;1.80;;;;;;;;;;4755192;30;20051;-79
2022/12/07 13:36:35;;;;;;;3.53;1.80;;;;;;;;;;4764926;30;20040;-80
2022/12/07 13:39:13;;;;;;;4.47;1.80;;;;;;;;;;4758307;30;20471;-79
2022/12/07 13:41:42;;;;;;;3.90;1.80;;;;;;;;;;4756165;30;20031;-79
2022/12/07 13:44:14;;;;;;;5.88;1.60;;;;;;;;;;4763084;30;20482;-79
2022/12/07 13:47:18;;;;;;;3.53;1.50;;;;;;;;;;4768221;30;20482;-80
2022/12/07 13:49:53;;;;;;;2.70;0.93;;;;;;;;;;4741671;30;20123;-78
2022/12/07 13:52:23;;;;;;;4.57;1.08;;;;;;;;;;4750813;30;20040;-80
2022/12/07 13:55:19;;;;;;;2.08;1.00;;;;;;;;;;4751531;30;20031;-80
2022/12/07 13:57:48;;;;;;;1.15;0.63;;;;;;;;;;4748142;30;20124;-79
2022/12/07 14:00:18;;;;;;;1.75;0.80;;;;;;;;;;4763093;30;20032;-80
2022/12/07 14:03:13;;;;;;;2.05;0.82;;;;;;;;;;4764424;30;20035;-80
2022/12/07 14:05:44;;;;;;;3.97;0.90;;;;;;;;;;4753298;30;20135;-80
2022/12/07 14:08:09;;;;;;;2.00;0.80;;;;;;;;;;4767492;30;20042;-80
2022/12/07 14:10:56;;;;;;;1.85;0.70;;;;;;;;;;4760514;30;20119;-79
2022/12/07 14:13:30;;;;;;;4.53;0.73;;;;;;;;;;4762011;30;20482;-79
2022/12/07 14:15:57;;;;;;;1.52;0.80;;;;;;;;;;4767296;30;20517;-79
2022/12/07 14:18:28;;;;;;;1.17;0.73;;;;;;;;;;4767288;30;20137;-79
2022/12/07 14:21:06;;;;;;;0.90;0.50;;;;;;;;;;4761647;30;20044;-79
2022/12/07 14:23:32;;;;;;;2.30;0.40;;;;;;;;;;4763873;30;20092;-79
2022/12/07 14:26:15;;;;;;;1.08;0.52;;;;;;;;;;4754037;30;20036;-79
2022/12/07 14:28:42;;;;;;;0.95;0.40;;;;;;;;;;4770002;30;20573;-78
2022/12/07 14:31:21;;;;;;;2.20;0.60;;;;;;;;;;4748730;30;20052;-80
2022/12/07 14:33:46;;;;;;;3.55;0.50;;;;;;;;;;4750803;30;20065;-79
2022/12/07 14:36:13;;;;;;;2.17;0.50;;;;;;;;;;4767650;30;20919;-80
2022/12/07 14:38:39;;;;;;;2.38;0.30;;;;;;;;;;4769871;30;20478;-80
2022/12/07 14:43:56;;;;;;;1.58;0.40;;;;;;;;;;4769044;30;20101;-80
2022/12/07 14:46:22;;;;;;;2.03;0.60;;;;;;;;;;4766485;30;20040;-80
2022/12/07 14:48:47;;;;;;;1.85;0.60;;;;;;;;;;4765062;30;20024;-79
2022/12/07 14:51:13;;;;;;;1.15;0.50;;;;;;;;;;4767958;30;20035;-80
2022/12/07 14:53:46;;;;;;;2.83;0.65;;;;;;;;;;4765104;30;20035;-80
2022/12/07 14:56:11;;;;;;;1.83;0.90;;;;;;;;;;4749608;30;20122;-80
2022/12/07 14:58:36;;;;;;;2.47;0.55;;;;;;;;;;4769100;30;20126;-80
2022/12/07 15:01:02;;;;;;;2.65;0.52;;;;;;;;;;4764370;30;20227;-80
2022/12/07 15:03:27;;;;;;;1.27;0.47;;;;;;;;;;4764498;30;20089;-79
2022/12/07 15:05:53;;;;;;;2.30;0.60;;;;;;;;;;4773311;30;20035;-79
2022/12/07 15:08:18;;;;;;;1.70;0.60;;;;;;;;;;4775146;30;20070;-79
2022/12/07 15:10:44;;;;;;;2.10;0.82;;;;;;;;;;4752163;30;20405;-79